METAR AND TAF INFORMATION
METAR FOR LFPN
ADDS - METARS form results

(0828 UTC 16 June 2019)
Data provider http://aviationweather.gov/metar/data/
 
METAR text: LFPN 160800Z AUTO 22005KT 180V300 9999 BKN019 19/13 Q1021 NOSIG
Conditions at: LFPN (TOUSSUS LE NOBLE, FR) observed 0800 UTC 16 June 2019
Temperature: 19.0°C (66°F)
Dewpoint: 13.0°C (55°F) [RH = 68%]
Pressure (altimeter): 30.15 inches Hg (1021.0 mb)
Winds: from the SW (220 degrees) at 6 MPH (5 knots; 2.6 m/s)
Visibility: 6 or more miles (10+ km)
Ceiling: 1900 feet AGL
Clouds: broken clouds at 1900 feet AGL
Weather: no significant weather observed at this time

METAR text: LFPN 160730Z AUTO 22006KT 180V250 9999 OVC016 18/13 Q1021 NOSIG
Conditions at: LFPN (TOUSSUS LE NOBLE, FR) observed 0730 UTC 16 June 2019
Temperature: 18.0°C (64°F)
Dewpoint: 13.0°C (55°F) [RH = 73%]
Pressure (altimeter): 30.15 inches Hg (1021.0 mb)
Winds: from the SW (220 degrees) at 7 MPH (6 knots; 3.1 m/s)
Visibility: 6 or more miles (10+ km)
Ceiling: 1600 feet AGL
Clouds: overcast cloud deck at 1600 feet AGL
Weather: no significant weather observed at this time

Forecast for: LFPN (TOUSSUS LE NOBLE, FR)
Text: TAF LFPN 160800Z 1609/1618 24008KT 9999 BKN022
Forecast period: 0900 to 1500 UTC 16 June 2019
Forecast type: FROM: standard forecast or significant change
Winds: from the WSW (240 degrees) at 9 MPH (8 knots; 4.1 m/s)
Visibility: 6 or more miles 10+ km)
Ceiling: 2200 feet AGL
Clouds: broken clouds at 2200 feet AGL
Weather: no significant weather forecast for this period
Text: BECMG 1615/1618 CAVOK
Forecast period: 1500 to 1800 UTC 16 June 2019
Forecast type: BECOMING: Conditions expected to become as follows by 1800 UTC 16 June 2019
Winds: from the WSW (240 degrees) at 9 MPH (8 knots; 4.1 m/s)
Visibility: 6 or more miles 10+ km)
Ceiling: unknown
Clouds: missing
Weather: NSW  (no significant weather)

 AIRPORT MAP

 RUNWAY INFORMATION
Runway 07L Runway length 3609 ft Runway width 98 ft
Runway elevation 538 ft Runway displaced threshold 0 ft Runway heading 70
Runway 25R Runway length 3609 ft Runway width 98 ft
Runway elevation 503 ft Runway displaced threshold 0 ft Runway heading 250
Runway 07R Runway length 3445 ft Runway width 98 ft
Runway elevation 536 ft Runway displaced threshold 0 ft Runway heading 70
Runway 25L Runway length 3445 ft Runway width 98 ft
Runway elevation 499 ft Runway displaced threshold 0 ft Runway heading 250

 AIRPORT FREQUENCIES
Type ATIS Name ATIS Frequency 127.475 MHZ
Type GND Name GND Frequency 121.85 MHZ
Type TWR Name TWR Frequency 119.3 MHZ

 AIRPORT NEAR NAVIGATION AIDS
Type VOR Name Toussus Frequency 108250 KHZ



Powered by Virtual Airlines Manager [v2.6.2]